LFML/MRS METAR and TAF weather

Enter ICAO airport designator
Station Type Date Time Source
LFML METAR 2019/08/25 20:00 UTC NOAA

LFML 252000Z AUTO 17003KT CAVOK 25/19 Q1017 NOSIG


Station Type Date Time Source
LFML Decoded METAR 2019/08/25 20:00 UTC NOAA

Station name not available
Aug 25, 2019 - 04:00 PM EDT / 2019.08.25 2000 UTC
Wind: from the S (170 degrees) at 3 MPH (3 KT):0
Visibility: greater than 7 mile(s):0
Temperature: 77 F (25 C)
Dew Point: 66 F (19 C)
Relative Humidity: 69%
Pressure (altimeter): 30.03 in. Hg (1017 hPa)
ob: LFML 252000Z AUTO 17003KT CAVOK 25/19 Q1017 NOSIG
cycle: 20

Station Type Date Time Source
LFML TAF 2019/08/25 16:43 UTC NOAA

TAF
AMD LFML 251628Z 2516/2621 18010KT CAVOK TX33/2613Z TN20/2605Z
BECMG 2518/2519 VRB03KT
BECMG 2608/2610 26007KT
TEMPO 2613/2617 19010KT
BECMG 2617/2619 VRB03KT

Example: see airport list